| time (UTC) | temp C | wind direction | speed KPH | gust KPH | rain 1hr cm | rain 24hr cm | rain mn cm | humidity % | barometer mb |
| 20260505124103 | 11 | 0 | 0.0 | 0.0 | 0.00 | 1.02 | 0.03 | 97 | 1015.1 |
| 20260505123100 | 11 | 0 | 0.0 | 0.0 | 0.00 | 1.02 | 0.03 | 97 | 1015.2 |
| 20260505120058 | 10 | 0 | 0.0 | 0.0 | 0.00 | 1.02 | 0.03 | 99 | 1015.2 |
| 20260505114059 | 10 | 0 | 0.0 | 0.0 | 0.00 | 1.02 | 0.03 | 10 | 1015.3 |
| 20260505113058 | 10 | 0 | 0.0 | 0.0 | 0.00 | 1.02 | 0.03 | 99 | 1015.3 |
| 20260505112059 | 10 | 0 | 0.0 | 0.0 | 0.00 | 1.02 | 0.03 | 10 | 1015.4 |
| 20260505111059 | 10 | 0 | 0.0 | 0.0 | 0.00 | 1.02 | 0.03 | 10 | 1015.5 |
| 20260505102056 | 10 | 0 | 0.0 | 0.0 | 0.00 | 1.02 | 0.03 | 10 | 1015.5 |
| 20260505101100 | 10 | 0 | 0.0 | 0.0 | 0.00 | 1.02 | 0.03 | 10 | 1015.5 |
| 20260505100059 | 10 | 0 | 0.0 | 0.0 | 0.00 | 1.02 | 0.03 | 10 | 1015.5 |
| 20260505095101 | 10 | 0 | 0.0 | 0.0 | 0.00 | 1.02 | 0.03 | 10 | 1015.5 |
| 20260505094101 | 10 | 0 | 0.0 | 0.0 | 0.00 | 1.02 | 0.03 | 10 | 1015.5 |
| 20260505091058 | 10 | 0 | 0.0 | 0.0 | 0.00 | 1.02 | 0.03 | 10 | 1015.6 |
| 20260505084059 | 10 | 0 | 0.0 | 0.0 | 0.00 | 1.02 | 0.03 | 10 | 1015.6 |
| 20260505083058 | 10 | 0 | 0.0 | 0.0 | 0.00 | 1.02 | 0.03 | 10 | 1015.7 |
| 20260505082059 | 10 | 0 | 0.0 | 0.0 | 0.00 | 1.02 | 0.03 | 10 | 1015.7 |
| 20260505081100 | 10 | 0 | 0.0 | 0.0 | 0.00 | 1.02 | 0.03 | 10 | 1015.8 |
| 20260505074100 | 10 | 0 | 0.0 | 0.0 | 0.00 | 1.02 | 0.03 | 10 | 1015.7 |
| 20260505073059 | 10 | 0 | 0.0 | 0.0 | 0.00 | 1.02 | 0.03 | 10 | 1015.8 |
| 20260505072100 | 10 | 0 | 0.0 | 0.0 | 0.00 | 1.02 | 0.03 | 10 | 1015.8 |
| 20260505071100 | 10 | 0 | 0.0 | 0.0 | 0.00 | 1.02 | 0.03 | 10 | 1015.8 |
| 20260505065058 | 10 | 0 | 0.0 | 0.0 | 0.00 | 1.02 | 0.03 | 10 | 1015.8 |
| 20260505060057 | 10 | 0 | 0.0 | 0.0 | 0.00 | 1.02 | 0.03 | 10 | 1016.0 |
| 20260505055056 | 10 | 0 | 0.0 | 0.0 | 0.00 | 1.02 | 0.03 | 10 | 1016.1 |
| 20260505054058 | 10 | 0 | 0.0 | 0.0 | 0.00 | 1.02 | 0.03 | 10 | 1016.0 |
| 20260505053055 | 10 | 0 | 0.0 | 0.0 | 0.00 | 1.02 | 0.03 | 10 | 1015.9 |
| 20260505052054 | 11 | 0 | 0.0 | 0.0 | 0.00 | 1.02 | 0.03 | 10 | 1015.9 |
| 20260505040057 | 11 | 0 | 0.0 | 0.0 | 0.00 | 1.02 | 0.03 | 10 | 1016.1 |
| 20260505035059 | 11 | 0 | 0.0 | 0.0 | 0.00 | 1.02 | 0.03 | 10 | 1016.2 |
| 20260505034055 | 11 | 0 | 0.0 | 0.0 | 0.00 | 1.02 | 0.03 | 10 | 1016.2 |
| 20260505033058 | 11 | 0 | 0.0 | 0.0 | 0.00 | 1.02 | 0.03 | 10 | 1016.2 |
| 20260505032058 | 11 | 0 | 0.0 | 0.0 | 0.00 | 1.02 | 0.03 | 10 | 1016.2 |
| 20260505031059 | 11 | 0 | 0.0 | 0.0 | 0.00 | 1.02 | 0.03 | 10 | 1016.3 |
| 20260505030057 | 11 | 0 | 0.0 | 0.0 | 0.00 | 1.02 | 0.03 | 10 | 1016.3 |
| 20260505025056 | 11 | 0 | 0.0 | 0.0 | 0.00 | 1.02 | 0.03 | 10 | 1016.4 |
| 20260505024101 | 11 | 0 | 0.0 | 0.0 | 0.00 | 1.02 | 0.03 | 10 | 1016.4 |
| 20260505023059 | 11 | 0 | 0.0 | 0.0 | 0.00 | 1.02 | 0.03 | 10 | 1016.3 |
| 20260505022055 | 11 | 0 | 0.0 | 0.0 | 0.00 | 1.02 | 0.03 | 10 | 1016.4 |
| 20260505021058 | 11 | 0 | 0.0 | 0.0 | 0.00 | 1.02 | 0.03 | 10 | 1016.5 |
| 20260505020059 | 11 | 0 | 0.0 | 0.0 | 0.00 | 1.02 | 0.03 | 10 | 1016.4 |
| 20260505015058 | 11 | 0 | 0.0 | 0.0 | 0.00 | 1.02 | 0.03 | 10 | 1016.4 |
| 20260505014056 | 11 | 0 | 0.0 | 0.0 | 0.00 | 1.02 | 0.03 | 10 | 1016.4 |
| 20260505012055 | 11 | 0 | 0.0 | 0.0 | 0.00 | 1.02 | 0.03 | 10 | 1016.4 |
| 20260505010058 | 11 | 0 | 0.0 | 0.0 | 0.00 | 1.02 | 0.03 | 10 | 1016.4 |
| 20260505005102 | 11 | 0 | 0.0 | 0.0 | 0.00 | 1.02 | 0.03 | 10 | 1016.6 |
| 20260505004055 | 11 | 0 | 0.0 | 0.0 | 0.00 | 1.02 | 0.03 | 10 | 1016.6 |
| 20260505003058 | 11 | 0 | 0.0 | 0.0 | 0.00 | 1.04 | 0.03 | 10 | 1016.7 |
| 20260505002057 | 11 | 0 | 0.0 | 0.0 | 0.00 | 1.04 | 0.03 | 10 | 1016.8 |
| 20260505001058 | 11 | 0 | 0.0 | 0.0 | 0.03 | 1.07 | 0.03 | 10 | 1016.9 |
| 20260505000103 | 11 | 0 | 0.0 | 0.0 | 0.03 | 1.09 | 0.03 | 10 | 1017.0 |
| 20260504235106 | 11 | 0 | 0.0 | 0.0 | 0.03 | 1.12 | 0.03 | 10 | 1017.0 |
| 20260504234106 | 12 | 0 | 0.0 | 0.0 | 0.03 | 1.12 | 0.03 | 10 | 1017.0 |
| 20260504233110 | 12 | 0 | 0.0 | 0.0 | 0.03 | 1.12 | 0.03 | 10 | 1017.1 |
| 20260504232106 | 12 | 0 | 0.0 | 0.0 | 0.03 | 1.12 | 0.03 | 10 | 1017.1 |
| 20260504231107 | 12 | 0 | 0.0 | 0.0 | 0.03 | 1.14 | 0.03 | 10 | 1017.1 |
| 20260504230107 | 12 | 0 | 0.0 | 0.0 | 0.00 | 1.12 | 0.00 | 10 | 1017.3 |
| 20260504225110 | 12 | 0 | 0.0 | 0.0 | 0.00 | 1.12 | 0.00 | 10 | 1017.3 |
| 20260504223109 | 12 | 0 | 0.0 | 0.0 | 0.00 | 1.12 | 0.00 | 10 | 1017.5 |
| 20260504222110 | 12 | 0 | 0.0 | 0.0 | 0.00 | 1.12 | 0.00 | 10 | 1017.5 |
| 20260504221108 | 12 | 0 | 0.0 | 0.0 | 0.00 | 1.12 | 0.00 | 10 | 1017.6 |
| 20260504220107 | 12 | 0 | 0.0 | 0.0 | 0.00 | 1.12 | 0.00 | 10 | 1017.7 |
| 20260504215116 | 12 | 0 | 0.0 | 0.0 | 0.00 | 1.12 | 1.12 | 10 | 1017.8 |
| 20260504214114 | 12 | 0 | 0.0 | 0.0 | 0.00 | 1.12 | 1.12 | 10 | 1017.8 |
| 20260504212116 | 13 | 0 | 0.0 | 0.0 | 0.03 | 1.12 | 1.12 | 10 | 1017.8 |
| 20260504211114 | 13 | 0 | 0.0 | 0.0 | 0.03 | 1.12 | 1.12 | 10 | 1017.9 |
| 20260504210113 | 13 | 0 | 0.0 | 0.0 | 0.03 | 1.12 | 1.12 | 10 | 1017.9 |
| 20260504205113 | 13 | 0 | 0.0 | 0.0 | 0.03 | 1.12 | 1.12 | 10 | 1018.0 |
| 20260504204114 | 13 | 0 | 0.0 | 0.0 | 0.03 | 1.12 | 1.12 | 10 | 1017.9 |
| 20260504202127 | 13 | 0 | 0.0 | 0.0 | 0.00 | 1.09 | 1.09 | 99 | 1018.0 |
| 20260504201122 | 13 | 0 | 0.0 | 0.0 | 0.13 | 1.09 | 1.09 | 99 | 1018.1 |
| 20260504195114 | 13 | 0 | 0.0 | 0.0 | 0.91 | 1.09 | 1.09 | 98 | 1017.7 |
| 20260504194113 | 13 | 0 | 0.0 | 0.0 | 0.99 | 1.09 | 1.09 | 98 | 1017.5 |
| 20260504193112 | 13 | 0 | 0.0 | 0.0 | 0.99 | 1.09 | 1.09 | 97 | 1017.5 |
| 20260504192114 | 13 | 0 | 0.0 | 0.0 | 0.99 | 1.09 | 1.09 | 97 | 1017.5 |
| 20260504191116 | 14 | 0 | 0.0 | 0.0 | 0.99 | 1.09 | 1.09 | 96 | 1017.5 |
| 20260504190115 | 14 | 0 | 0.0 | 0.0 | 0.86 | 0.99 | 0.99 | 94 | 1017.5 |
| 20260504185115 | 15 | 0 | 0.0 | 0.0 | 0.41 | 0.51 | 0.51 | 91 | 1017.5 |
| 20260504184110 | 15 | 0 | 0.0 | 0.0 | 0.05 | 0.18 | 0.18 | 88 | 1017.4 |
| 20260504183111 | 16 | 0 | 0.0 | 0.0 | 0.00 | 0.13 | 0.13 | 81 | 1017.2 |
| 20260504182106 | 16 | 0 | 0.0 | 0.0 | 0.00 | 0.13 | 0.13 | 81 | 1017.1 |
| 20260504181110 | 16 | 0 | 0.0 | 0.0 | 0.00 | 0.13 | 0.13 | 79 | 1017.1 |
| 20260504180114 | 16 | 0 | 0.0 | 0.0 | 0.00 | 0.13 | 0.13 | 80 | 1017.1 |
| 20260504175108 | 16 | 0 | 0.0 | 0.0 | 0.00 | 0.13 | 0.13 | 81 | 1017.1 |
| 20260504174107 | 16 | 0 | 0.0 | 0.0 | 0.00 | 0.13 | 0.13 | 79 | 1017.1 |
| 20260504171109 | 16 | 0 | 0.0 | 0.0 | 0.00 | 0.13 | 0.13 | 82 | 1017.1 |
| 20260504170106 | 16 | 0 | 0.0 | 0.0 | 0.00 | 0.13 | 0.13 | 82 | 1017.1 |
| 20260504160105 | 19 | 0 | 0.0 | 0.0 | 0.00 | 0.25 | 0.13 | 76 | 1017.0 |
| 20260504151109 | 18 | 0 | 0.0 | 0.0 | 0.00 | 0.46 | 0.13 | 71 | 1017.2 |
| 20260504141103 | 18 | 0 | 0.0 | 0.0 | 0.00 | 0.46 | 0.13 | 74 | 1017.7 |
| 20260504140113 | 18 | 0 | 0.0 | 0.0 | 0.00 | 0.46 | 0.13 | 75 | 1017.9 |